createdAt,value
2022-10-14T00:01:44.424Z,26.13
2022-10-14T00:04:10.948Z,24.10
2022-10-14T00:06:38.216Z,32.03
2022-10-14T00:09:08.592Z,28.67
2022-10-14T00:11:36.879Z,29.33
2022-10-14T00:14:08.095Z,26.50
2022-10-14T00:16:39.484Z,29.87
2022-10-14T00:19:06.309Z,29.53
2022-10-14T00:21:33.832Z,26.40
2022-10-14T00:24:00.688Z,30.23
2022-10-14T00:26:30.882Z,23.90
2022-10-14T00:28:59.330Z,28.50
2022-10-14T00:31:27.116Z,29.03
2022-10-14T00:33:54.060Z,31.13
2022-10-14T00:36:22.856Z,31.67
2022-10-14T00:38:50.157Z,24.90
2022-10-14T00:41:35.175Z,22.60
2022-10-14T00:44:10.897Z,21.90
2022-10-14T00:46:39.877Z,21.63
2022-10-14T00:49:16.967Z,22.43
2022-10-14T00:51:50.139Z,22.10
2022-10-14T00:54:18.578Z,25.70
2022-10-14T00:56:47.425Z,27.40
2022-10-14T00:59:15.224Z,24.83
2022-10-14T01:01:41.857Z,22.07
2022-10-14T01:04:08.370Z,20.80
2022-10-14T01:06:49.585Z,19.03
2022-10-14T01:10:02.596Z,23.13
2022-10-14T01:12:36.799Z,24.87
2022-10-14T01:15:06.978Z,22.20
2022-10-14T01:17:45.344Z,16.30
2022-10-14T01:20:33.462Z,23.07
2022-10-14T01:23:13.263Z,23.30
2022-10-14T01:25:58.816Z,23.83
2022-10-14T01:28:52.893Z,22.93
2022-10-14T01:31:26.948Z,15.63
2022-10-14T01:33:57.898Z,19.00
2022-10-14T01:36:54.456Z,28.63
2022-10-14T01:39:27.467Z,19.20
2022-10-14T01:42:01.324Z,20.00
2022-10-14T01:44:30.250Z,22.63
2022-10-14T01:47:00.357Z,19.67
2022-10-14T01:49:36.013Z,18.67
2022-10-14T01:52:08.304Z,20.30
2022-10-14T01:54:40.525Z,18.63
2022-10-14T01:57:15.970Z,16.33
2022-10-14T01:59:43.642Z,16.70
2022-10-14T02:02:12.451Z,20.80
2022-10-14T02:04:39.715Z,23.60
2022-10-14T02:07:17.468Z,14.37
2022-10-14T02:10:08.632Z,22.10
2022-10-14T02:12:48.317Z,17.63
2022-10-14T02:15:20.579Z,16.60
2022-10-14T02:17:58.790Z,18.60
2022-10-14T02:20:32.236Z,20.40
2022-10-14T02:23:20.357Z,17.80
2022-10-14T02:25:49.141Z,19.50
2022-10-14T02:28:19.213Z,17.20
2022-10-14T02:30:52.088Z,18.37
2022-10-14T02:33:22.346Z,18.37
2022-10-14T02:35:50.769Z,18.47
2022-10-14T02:38:19.992Z,12.67
2022-10-14T02:40:49.774Z,15.67
2022-10-14T02:43:18.345Z,14.37
2022-10-14T02:45:44.961Z,15.30
2022-10-14T02:48:12.451Z,17.03
2022-10-14T02:50:39.997Z,19.90
2022-10-14T02:53:06.538Z,18.47
2022-10-14T02:55:33.079Z,12.57
2022-10-14T02:57:59.584Z,18.50
2022-10-14T03:00:26.337Z,17.03
2022-10-14T03:02:52.844Z,21.10
2022-10-14T03:05:19.457Z,16.70
2022-10-14T03:07:45.983Z,20.07
2022-10-14T03:10:12.492Z,14.70
2022-10-14T03:12:39.034Z,15.77
2022-10-14T03:15:06.478Z,14.97
2022-10-14T03:17:33.016Z,13.57
2022-10-14T03:19:59.630Z,18.60
2022-10-14T03:22:26.521Z,18.57
2022-10-14T03:24:53.189Z,16.67
2022-10-14T03:27:19.757Z,19.07
2022-10-14T03:29:46.276Z,17.17
2022-10-14T03:32:12.835Z,13.63
2022-10-14T03:34:39.357Z,12.97
2022-10-14T03:37:06.307Z,10.83
2022-10-14T03:39:32.854Z,12.00
2022-10-14T03:41:59.497Z,14.17
2022-10-14T03:44:26.171Z,14.20
2022-10-14T03:46:52.717Z,14.63
2022-10-14T03:49:19.331Z,14.53
2022-10-14T03:51:45.851Z,11.90
2022-10-14T03:54:12.850Z,10.37
2022-10-14T03:56:39.373Z,15.07
2022-10-14T03:59:05.870Z,10.63
2022-10-14T04:01:32.471Z,10.90
2022-10-14T04:03:59.040Z,9.40
2022-10-14T04:06:25.676Z,15.80
2022-10-14T04:08:52.208Z,16.17
2022-10-14T04:11:18.835Z,18.23
2022-10-14T04:13:45.357Z,13.73
2022-10-14T04:16:12.152Z,15.07
2022-10-14T04:18:39.009Z,14.27
2022-10-14T04:21:11.861Z,14.40
2022-10-14T04:23:38.752Z,11.17
2022-10-14T04:26:08.079Z,9.80
2022-10-14T04:28:35.154Z,9.37
2022-10-14T04:31:02.272Z,11.40
2022-10-14T04:33:28.990Z,9.53
2022-10-14T04:36:04.161Z,13.60
2022-10-14T04:38:30.796Z,13.10
2022-10-14T04:40:57.825Z,17.80
2022-10-14T04:43:24.439Z,17.90
2022-10-14T04:45:51.211Z,17.27
2022-10-14T04:48:18.273Z,16.90
2022-10-14T04:50:45.023Z,11.80
2022-10-14T04:53:13.758Z,13.97
2022-10-14T04:55:40.706Z,12.63
2022-10-14T04:58:07.440Z,12.30
2022-10-14T05:00:33.999Z,15.27
2022-10-14T05:03:00.512Z,11.77
2022-10-14T05:05:27.192Z,8.23
2022-10-14T05:07:53.806Z,10.77
2022-10-14T05:10:20.376Z,10.57
2022-10-14T05:12:46.933Z,11.33
2022-10-14T05:15:13.725Z,11.80
2022-10-14T05:17:40.543Z,10.37
2022-10-14T05:20:07.545Z,8.67
2022-10-14T05:22:34.083Z,10.60
2022-10-14T05:25:00.588Z,9.80
2022-10-14T05:27:27.156Z,7.77
2022-10-14T05:29:53.725Z,7.73
2022-10-14T05:32:20.689Z,7.40
2022-10-14T05:34:47.882Z,9.90
2022-10-14T05:37:14.479Z,9.47
2022-10-14T05:39:41.031Z,17.33
2022-10-14T05:42:07.564Z,17.20
2022-10-14T05:44:34.293Z,18.40
2022-10-14T05:47:00.810Z,16.27
2022-10-14T05:49:27.345Z,10.80
2022-10-14T05:51:53.872Z,7.80
2022-10-14T05:54:20.388Z,9.97
2022-10-14T05:56:47.007Z,12.20
2022-10-14T05:59:13.697Z,13.23
2022-10-14T06:01:40.726Z,8.70
2022-10-14T06:04:07.950Z,12.30
2022-10-14T06:06:34.540Z,10.80
2022-10-14T06:09:01.065Z,7.63
2022-10-14T06:11:27.830Z,8.23
2022-10-14T06:13:54.394Z,8.97
2022-10-14T06:16:20.949Z,6.20
2022-10-14T06:18:51.064Z,12.10
2022-10-14T06:21:20.686Z,4.87
2022-10-14T06:23:47.301Z,4.40
2022-10-14T06:26:13.889Z,5.33
2022-10-14T06:28:41.042Z,8.70
2022-10-14T06:31:07.657Z,4.57
2022-10-14T06:33:34.999Z,7.07
2022-10-14T06:36:03.148Z,6.20
2022-10-14T06:38:29.872Z,9.63
2022-10-14T06:40:56.400Z,5.93
2022-10-14T06:43:23.373Z,6.17
2022-10-14T06:45:50.144Z,5.70
2022-10-14T06:48:16.683Z,5.27
2022-10-14T06:50:43.239Z,6.07
2022-10-14T06:53:09.821Z,7.13
2022-10-14T06:55:36.363Z,7.20
2022-10-14T06:58:02.875Z,5.50
2022-10-14T07:00:29.484Z,4.23
2022-10-14T07:02:58.939Z,4.67
2022-10-14T07:05:26.511Z,7.60
2022-10-14T07:07:53.066Z,8.30
2022-10-14T07:10:19.906Z,7.37
2022-10-14T07:12:46.425Z,4.97
2022-10-14T07:15:12.945Z,5.97
2022-10-14T07:17:39.777Z,5.53
2022-10-14T07:20:07.270Z,6.20
2022-10-14T07:22:38.655Z,6.87
2022-10-14T07:25:06.459Z,8.33
2022-10-14T07:27:33.059Z,8.20
2022-10-14T07:29:59.757Z,5.60
2022-10-14T07:32:26.347Z,5.53
2022-10-14T07:34:52.981Z,3.60
2022-10-14T07:37:19.856Z,5.00
2022-10-14T07:39:46.588Z,5.10
2022-10-14T07:42:13.123Z,6.47
2022-10-14T07:44:39.840Z,7.30
2022-10-14T07:47:07.397Z,6.80
2022-10-14T07:49:33.965Z,7.80
2022-10-14T07:52:00.493Z,7.23
2022-10-14T07:54:29.944Z,7.50
2022-10-14T07:56:57.853Z,10.17
2022-10-14T07:59:25.494Z,7.73
2022-10-14T08:01:53.013Z,7.13
2022-10-14T08:04:19.891Z,6.73
2022-10-14T08:06:50.358Z,13.53
2022-10-14T08:09:18.204Z,7.60
2022-10-14T08:11:45.025Z,7.07
2022-10-14T08:14:11.764Z,5.80
2022-10-14T08:16:39.550Z,7.70
2022-10-14T08:19:14.404Z,5.70
2022-10-14T08:21:43.033Z,3.90
2022-10-14T08:24:10.435Z,4.20
2022-10-14T08:26:39.507Z,5.00
2022-10-14T08:29:12.280Z,5.80
2022-10-14T08:31:38.859Z,3.17
2022-10-14T08:34:05.511Z,7.43
2022-10-14T08:36:32.189Z,3.50
2022-10-14T08:38:58.795Z,2.93
2022-10-14T08:41:55.796Z,2.47
2022-10-14T08:44:27.038Z,7.50
2022-10-14T08:47:00.093Z,2.50
2022-10-14T08:49:37.673Z,3.20
2022-10-14T08:52:12.475Z,5.43
2022-10-14T08:54:44.141Z,3.13
2022-10-14T08:57:34.872Z,3.40
2022-10-14T09:00:02.068Z,2.87
2022-10-14T09:02:47.157Z,4.20
2022-10-14T09:05:15.829Z,2.70
2022-10-14T09:07:44.659Z,2.23
2022-10-14T09:10:41.063Z,5.30
2022-10-14T09:13:15.567Z,2.07
2022-10-14T09:15:45.856Z,5.77
2022-10-14T09:18:38.069Z,2.40
2022-10-14T09:21:47.927Z,2.27
2022-10-14T09:24:13.600Z,5.43
2022-10-14T09:26:43.102Z,4.30
2022-10-14T09:29:29.059Z,1.83
2022-10-14T09:31:58.938Z,3.30
2022-10-14T09:34:38.408Z,3.70
2022-10-14T09:37:28.073Z,2.30
2022-10-14T09:39:59.063Z,1.60
2022-10-14T09:42:51.175Z,2.70
2022-10-14T09:45:22.576Z,3.03
2022-10-14T09:47:58.317Z,3.37
2022-10-14T09:50:53.864Z,3.57
2022-10-14T09:53:45.250Z,2.77
2022-10-14T09:56:13.039Z,3.97
2022-10-14T09:58:44.485Z,4.90
2022-10-14T10:01:19.487Z,4.47
2022-10-14T10:03:47.918Z,8.37
2022-10-14T10:06:19.000Z,4.77
2022-10-14T10:08:55.091Z,3.93
2022-10-14T10:11:33.243Z,15.03
2022-10-14T10:14:14.975Z,9.00
2022-10-14T10:16:41.565Z,7.63
2022-10-14T10:19:31.884Z,6.23
2022-10-14T10:24:52.389Z,8.40
2022-10-14T10:27:21.835Z,5.80
2022-10-14T10:29:48.606Z,7.50
2022-10-14T10:32:35.378Z,5.37
2022-10-14T10:35:14.785Z,7.27
2022-10-14T10:38:00.369Z,7.73
2022-10-14T10:40:26.846Z,7.00
2022-10-14T10:43:12.542Z,4.93
2022-10-14T10:46:08.275Z,7.50
2022-10-14T10:48:50.016Z,6.07
2022-10-14T10:51:39.667Z,14.63
2022-10-14T10:54:35.906Z,4.27
2022-10-14T10:57:12.925Z,7.90
2022-10-14T11:00:01.149Z,6.60
2022-10-14T11:02:55.036Z,6.87
2022-10-14T11:05:52.288Z,10.37
2022-10-14T11:09:06.624Z,16.13
2022-10-14T11:12:03.709Z,30.20
2022-10-14T11:14:36.062Z,84.30
2022-10-14T11:17:23.159Z,83.83
2022-10-14T11:19:58.766Z,91.27
2022-10-14T11:22:41.210Z,88.77
2022-10-14T11:25:49.154Z,91.37
2022-10-14T11:28:57.626Z,118.03
2022-10-14T11:31:51.321Z,130.20
2022-10-14T11:34:36.541Z,128.97
2022-10-14T11:37:42.186Z,137.20
2022-10-14T11:40:14.816Z,185.13
2022-10-14T11:43:13.563Z,169.30
2022-10-14T11:45:50.240Z,191.63
2022-10-14T11:48:22.318Z,175.03
2022-10-14T11:50:54.393Z,168.97
2022-10-14T11:53:27.509Z,161.87
2022-10-14T11:56:29.579Z,155.00
2022-10-14T11:59:03.181Z,156.37
2022-10-14T12:01:35.603Z,159.13
2022-10-14T12:04:12.368Z,161.57
2022-10-14T12:06:55.625Z,148.17
2022-10-14T12:09:31.088Z,140.70
2022-10-14T12:12:08.898Z,138.70
2022-10-14T12:14:50.076Z,143.77
2022-10-14T12:17:24.123Z,149.73
2022-10-14T12:19:51.372Z,130.27
2022-10-14T12:22:25.728Z,146.40
2022-10-14T12:24:55.228Z,142.77
2022-10-14T12:27:25.678Z,149.30
2022-10-14T12:29:55.037Z,139.37
2022-10-14T12:32:31.698Z,141.17
2022-10-14T12:35:01.548Z,127.30
2022-10-14T12:37:32.427Z,126.23
2022-10-14T12:40:02.250Z,122.93
2022-10-14T12:42:30.581Z,129.33
2022-10-14T12:45:01.183Z,136.97
2022-10-14T12:47:35.143Z,119.07
2022-10-14T12:50:06.160Z,118.50
2022-10-14T12:52:37.225Z,127.73
2022-10-14T12:55:17.241Z,129.30
2022-10-14T12:57:43.890Z,121.67
2022-10-14T13:00:22.431Z,128.50
2022-10-14T13:02:51.399Z,120.13
2022-10-14T13:05:38.796Z,116.33
2022-10-14T13:08:19.987Z,121.33
2022-10-14T13:10:50.185Z,125.67
2022-10-14T13:13:53.686Z,104.33
2022-10-14T13:16:26.348Z,122.20
2022-10-14T13:19:02.266Z,112.63
2022-10-14T13:21:34.851Z,107.17
2022-10-14T13:24:03.046Z,136.87
2022-10-14T13:26:43.737Z,120.70
2022-10-14T13:29:16.112Z,111.87
2022-10-14T13:32:04.190Z,114.53
2022-10-14T13:34:36.701Z,122.03
2022-10-14T13:37:32.411Z,103.13
2022-10-14T13:40:34.744Z,110.90
2022-10-14T13:43:08.629Z,96.50
2022-10-14T13:45:42.271Z,101.63
2022-10-14T13:48:19.829Z,105.87
2022-10-14T13:50:50.261Z,97.50
2022-10-14T13:53:20.839Z,92.83
2022-10-14T13:55:54.444Z,86.10
2022-10-14T13:58:23.222Z,101.30
2022-10-14T14:01:04.217Z,91.73
2022-10-14T14:03:44.805Z,97.17
2022-10-14T14:06:14.672Z,96.03
2022-10-14T14:08:51.140Z,96.90
2022-10-14T14:11:21.091Z,90.40
2022-10-14T14:14:00.271Z,83.97
2022-10-14T14:16:33.220Z,92.43
2022-10-14T14:19:08.304Z,98.13
2022-10-14T14:21:35.627Z,89.17
2022-10-14T14:24:06.015Z,89.43
2022-10-14T14:26:37.892Z,93.70
2022-10-14T14:29:20.405Z,90.67
2022-10-14T14:32:06.582Z,89.23
2022-10-14T14:34:35.656Z,89.97
2022-10-14T14:37:23.533Z,84.10
2022-10-14T14:40:21.858Z,94.50
2022-10-14T14:42:58.282Z,83.63
2022-10-14T14:45:30.716Z,76.97
2022-10-14T14:48:01.982Z,91.73
2022-10-14T14:50:33.538Z,89.47
2022-10-14T14:53:15.244Z,71.60
2022-10-14T14:55:53.843Z,73.63
2022-10-14T14:58:26.065Z,79.97
2022-10-14T15:00:54.658Z,81.43
2022-10-14T15:03:24.881Z,67.70
2022-10-14T15:06:15.213Z,80.27
2022-10-14T15:08:41.761Z,68.93
2022-10-14T15:11:08.911Z,80.00
2022-10-14T15:13:38.424Z,73.33
2022-10-14T15:16:06.342Z,76.00
2022-10-14T15:18:33.005Z,67.80
2022-10-14T15:21:11.686Z,79.50
2022-10-14T15:24:00.129Z,79.70
2022-10-14T15:26:35.436Z,76.63
2022-10-14T15:29:07.529Z,72.40
2022-10-14T15:31:38.640Z,76.43
2022-10-14T15:34:05.927Z,77.30
2022-10-14T15:36:34.515Z,60.67
2022-10-14T15:39:02.317Z,67.80
2022-10-14T15:41:29.082Z,61.40
2022-10-14T15:43:55.661Z,68.87
2022-10-14T15:46:41.630Z,61.33
2022-10-14T15:49:15.720Z,63.07
2022-10-14T15:51:42.272Z,59.07
2022-10-14T15:54:14.771Z,56.43
2022-10-14T15:56:41.333Z,62.73
2022-10-14T15:59:08.286Z,58.10
2022-10-14T16:01:37.959Z,53.77
2022-10-14T16:04:05.142Z,56.83
2022-10-14T16:06:32.463Z,68.53
2022-10-14T16:08:59.118Z,68.73
2022-10-14T16:11:28.422Z,57.27
2022-10-14T16:13:55.043Z,76.77
2022-10-14T16:16:26.976Z,61.60
2022-10-14T16:18:53.878Z,67.97
2022-10-14T16:21:20.390Z,75.20
2022-10-14T16:23:46.896Z,69.13
2022-10-14T16:26:14.291Z,63.03
2022-10-14T16:28:40.914Z,49.63
2022-10-14T16:31:12.288Z,57.73
2022-10-14T16:33:41.754Z,55.20
2022-10-14T16:36:14.210Z,65.57
2022-10-14T16:38:40.743Z,64.73
2022-10-14T16:41:09.872Z,57.67
2022-10-14T16:43:36.608Z,71.80
2022-10-14T16:46:04.451Z,54.63
2022-10-14T16:48:33.217Z,53.07
2022-10-14T16:51:00.180Z,58.80
2022-10-14T16:53:41.394Z,63.13
2022-10-14T16:56:30.857Z,63.90
2022-10-14T16:58:58.208Z,53.17
2022-10-14T17:01:25.495Z,61.30
2022-10-14T17:03:52.487Z,63.20
2022-10-14T17:06:23.926Z,55.93
2022-10-14T17:08:51.151Z,65.27
2022-10-14T17:11:18.400Z,55.77
2022-10-14T17:13:45.217Z,43.83
2022-10-14T17:16:11.985Z,61.33
2022-10-14T17:18:38.562Z,53.90
2022-10-14T17:21:11.907Z,53.70
2022-10-14T17:23:43.622Z,55.10
2022-10-14T17:26:13.188Z,63.23
2022-10-14T17:28:40.836Z,57.70
2022-10-14T17:31:10.037Z,47.37
2022-10-14T17:33:37.343Z,51.23
2022-10-14T17:36:06.266Z,53.17
2022-10-14T17:38:35.733Z,63.77
2022-10-14T17:41:05.765Z,49.80
2022-10-14T17:43:32.702Z,54.97
2022-10-14T17:46:12.591Z,51.00
2022-10-14T17:48:43.384Z,56.23
2022-10-14T17:51:11.118Z,49.33
2022-10-14T17:53:38.509Z,51.97
2022-10-14T17:56:11.987Z,45.77
2022-10-14T17:58:39.069Z,55.20
2022-10-14T18:01:10.719Z,44.37
2022-10-14T18:03:40.825Z,51.00
2022-10-14T18:06:18.119Z,44.77
2022-10-14T18:08:50.245Z,53.07
2022-10-14T18:11:17.814Z,48.87
2022-10-14T18:13:44.484Z,45.80
2022-10-14T18:16:13.212Z,47.43
2022-10-14T18:18:41.666Z,29.40
2022-10-14T18:21:09.495Z,31.30
2022-10-14T18:23:38.926Z,42.30
2022-10-14T18:26:10.921Z,43.37
2022-10-14T18:28:42.865Z,42.13
2022-10-14T18:31:27.053Z,39.53
2022-10-14T18:33:54.968Z,38.60
2022-10-14T18:36:24.387Z,35.10
2022-10-14T18:39:11.612Z,40.50
2022-10-14T18:41:38.665Z,42.10
2022-10-14T18:44:06.075Z,38.80
2022-10-14T18:46:40.748Z,41.33
2022-10-14T18:49:10.577Z,37.60
2022-10-14T18:51:39.020Z,41.80
2022-10-14T18:54:08.367Z,42.63
2022-10-14T18:56:40.182Z,40.30
2022-10-14T18:59:18.522Z,37.03
2022-10-14T19:01:47.375Z,35.10
2022-10-14T19:04:15.792Z,38.07
2022-10-14T19:06:45.749Z,45.90
2022-10-14T19:09:13.682Z,50.27
2022-10-14T19:11:41.314Z,38.77
2022-10-14T19:14:08.996Z,35.87
2022-10-14T19:16:37.965Z,37.93
2022-10-14T19:19:18.143Z,40.93
2022-10-14T19:21:46.346Z,38.73
2022-10-14T19:24:13.835Z,41.00
2022-10-14T19:26:43.402Z,39.63
2022-10-14T19:29:12.572Z,40.27
2022-10-14T19:31:39.939Z,42.13
2022-10-14T19:34:08.708Z,37.33
2022-10-14T19:36:38.964Z,39.40
2022-10-14T19:39:07.160Z,37.07
2022-10-14T19:41:38.283Z,40.60
2022-10-14T19:44:04.892Z,30.33
2022-10-14T19:46:31.423Z,42.90
2022-10-14T19:48:59.937Z,42.27
2022-10-14T19:51:27.067Z,30.57
2022-10-14T19:53:57.793Z,39.97
2022-10-14T19:56:25.543Z,33.20
2022-10-14T19:58:58.026Z,35.13
2022-10-14T20:01:26.768Z,31.07
2022-10-14T20:03:53.787Z,31.83
2022-10-14T20:06:21.723Z,35.67
2022-10-14T20:08:48.845Z,27.63
2022-10-14T20:11:17.746Z,33.40
2022-10-14T20:13:45.517Z,31.80
2022-10-14T20:16:12.963Z,29.53
2022-10-14T20:18:39.730Z,34.47
2022-10-14T20:21:07.776Z,25.33
2022-10-14T20:23:36.254Z,32.30
2022-10-14T20:26:07.981Z,33.03
2022-10-14T20:28:36.219Z,43.30
2022-10-14T20:31:05.122Z,33.90
2022-10-14T20:33:32.021Z,33.03
2022-10-14T20:36:19.982Z,33.13
2022-10-14T20:38:47.470Z,34.80
2022-10-14T20:41:15.332Z,31.07
2022-10-14T20:43:42.975Z,36.37
2022-10-14T20:46:09.869Z,32.23
2022-10-14T20:48:39.351Z,34.07
2022-10-14T20:51:14.245Z,33.80
2022-10-14T20:56:13.545Z,29.30
2022-10-14T20:58:40.823Z,29.20
2022-10-14T21:01:17.551Z,36.40
2022-10-14T21:03:45.909Z,30.43
2022-10-14T21:06:18.908Z,33.50
2022-10-14T21:08:46.541Z,29.43
2022-10-14T21:11:15.714Z,28.40
2022-10-14T21:13:47.351Z,34.30
2022-10-14T21:16:15.424Z,28.57
2022-10-14T21:18:46.275Z,28.63
2022-10-14T21:21:15.879Z,29.87
2022-10-14T21:23:43.953Z,28.83
2022-10-14T21:26:10.682Z,32.97
2022-10-14T21:28:37.289Z,31.57
2022-10-14T21:31:08.297Z,23.60
2022-10-14T21:33:35.372Z,27.70
2022-10-14T21:36:04.478Z,28.37
2022-10-14T21:38:31.138Z,25.23
2022-10-14T21:41:00.120Z,27.00
2022-10-14T21:43:28.353Z,31.10
2022-10-14T21:45:54.990Z,24.60
2022-10-14T21:48:22.438Z,27.73
2022-10-14T21:50:49.002Z,27.07
2022-10-14T21:53:16.233Z,26.63
2022-10-14T21:55:42.853Z,30.30
2022-10-14T21:58:09.361Z,28.40
2022-10-14T22:00:35.910Z,22.83
2022-10-14T22:03:02.454Z,31.70
2022-10-14T22:05:29.020Z,24.57
2022-10-14T22:07:55.758Z,22.50
2022-10-14T22:10:57.497Z,25.03
2022-10-14T22:13:25.495Z,26.10
2022-10-14T22:15:52.651Z,26.90
2022-10-14T22:18:19.257Z,26.10
2022-10-14T22:20:46.003Z,24.50
2022-10-14T22:23:12.964Z,21.80
2022-10-14T22:25:39.477Z,23.10
2022-10-14T22:28:06.083Z,21.00
2022-10-14T22:30:34.056Z,21.83
2022-10-14T22:33:00.686Z,24.73
2022-10-14T22:35:27.278Z,23.37
2022-10-14T22:37:53.788Z,22.97
2022-10-14T22:40:20.325Z,25.03
2022-10-14T22:42:51.445Z,21.53
2022-10-14T22:45:18.219Z,23.47
2022-10-14T22:47:44.749Z,28.27
2022-10-14T22:50:11.329Z,15.80
2022-10-14T22:52:38.113Z,26.77
2022-10-14T22:55:05.310Z,24.87
2022-10-14T22:57:31.846Z,20.27
2022-10-14T22:59:58.372Z,26.00
2022-10-14T23:02:25.268Z,21.30
2022-10-14T23:04:52.159Z,23.10
2022-10-14T23:07:18.801Z,22.47
2022-10-14T23:09:45.924Z,19.67
2022-10-14T23:12:12.494Z,21.47
2022-10-14T23:14:39.020Z,22.53
2022-10-14T23:17:05.535Z,20.87
2022-10-14T23:19:32.061Z,20.67
2022-10-14T23:21:58.568Z,20.03
2022-10-14T23:24:25.568Z,17.70
2022-10-14T23:26:52.083Z,21.47
2022-10-14T23:29:18.691Z,20.77
2022-10-14T23:31:45.195Z,19.90
2022-10-14T23:34:13.537Z,20.83
2022-10-14T23:36:40.689Z,18.87
2022-10-14T23:39:07.394Z,18.37
2022-10-14T23:41:34.007Z,17.63
2022-10-14T23:44:00.546Z,23.83
2022-10-14T23:46:27.060Z,20.00
2022-10-14T23:49:06.909Z,16.43
2022-10-14T23:51:34.862Z,26.67
2022-10-14T23:54:01.392Z,26.43
2022-10-14T23:56:27.957Z,17.40
2022-10-14T23:58:54.465Z,21.07
